sensor_id;sensor_type;location;lat;lon;timestamp;temperature;humidity
51837;DHT22;38941;53.254;6.600;2022-08-19T00:01:16;17.00;99.90
51837;DHT22;38941;53.254;6.600;2022-08-19T00:03:18;16.90;99.90
51837;DHT22;38941;53.254;6.600;2022-08-19T00:05:21;16.90;99.90
51837;DHT22;38941;53.254;6.600;2022-08-19T00:07:22;16.90;99.90
51837;DHT22;38941;53.254;6.600;2022-08-19T00:09:24;17.20;99.90
51837;DHT22;38941;53.254;6.600;2022-08-19T00:11:25;16.90;99.90
51837;DHT22;38941;53.254;6.600;2022-08-19T00:13:34;16.90;99.90
51837;DHT22;38941;53.254;6.600;2022-08-19T00:15:35;16.80;99.90
51837;DHT22;38941;53.254;6.600;2022-08-19T00:17:36;16.80;99.90
51837;DHT22;38941;53.254;6.600;2022-08-19T00:19:37;16.80;99.90
51837;DHT22;38941;53.254;6.600;2022-08-19T00:21:38;16.80;99.90
51837;DHT22;38941;53.254;6.600;2022-08-19T00:23:40;16.80;99.90
51837;DHT22;38941;53.254;6.600;2022-08-19T00:25:41;16.80;99.90
51837;DHT22;38941;53.254;6.600;2022-08-19T00:27:42;16.70;99.90
51837;DHT22;38941;53.254;6.600;2022-08-19T00:29:43;16.70;99.90
51837;DHT22;38941;53.254;6.600;2022-08-19T00:31:45;16.60;99.90
51837;DHT22;38941;53.254;6.600;2022-08-19T00:33:46;16.60;99.90
51837;DHT22;38941;53.254;6.600;2022-08-19T00:35:49;16.60;99.90
51837;DHT22;38941;53.254;6.600;2022-08-19T00:37:50;16.50;99.90
51837;DHT22;38941;53.254;6.600;2022-08-19T00:39:51;16.50;99.90
51837;DHT22;38941;53.254;6.600;2022-08-19T00:41:53;16.50;99.90
51837;DHT22;38941;53.254;6.600;2022-08-19T00:44:09;16.50;99.90
51837;DHT22;38941;53.254;6.600;2022-08-19T00:46:11;16.40;99.90
51837;DHT22;38941;53.254;6.600;2022-08-19T00:48:12;16.40;99.90
51837;DHT22;38941;53.254;6.600;2022-08-19T00:50:15;16.40;99.90
51837;DHT22;38941;53.254;6.600;2022-08-19T00:52:25;16.40;99.90
51837;DHT22;38941;53.254;6.600;2022-08-19T00:54:29;16.40;99.90
51837;DHT22;38941;53.254;6.600;2022-08-19T00:56:32;16.30;99.90
51837;DHT22;38941;53.254;6.600;2022-08-19T00:58:34;16.30;99.90
51837;DHT22;38941;53.254;6.600;2022-08-19T01:00:36;16.00;99.90
51837;DHT22;38941;53.254;6.600;2022-08-19T01:02:38;16.30;99.90
51837;DHT22;38941;53.254;6.600;2022-08-19T01:04:39;16.60;99.90
51837;DHT22;38941;53.254;6.600;2022-08-19T01:06:40;16.20;99.90
51837;DHT22;38941;53.254;6.600;2022-08-19T01:08:42;16.20;99.90
51837;DHT22;38941;53.254;6.600;2022-08-19T01:10:47;16.20;99.90
51837;DHT22;38941;53.254;6.600;2022-08-19T01:12:49;16.10;99.90
51837;DHT22;38941;53.254;6.600;2022-08-19T01:14:51;16.10;99.90
51837;DHT22;38941;53.254;6.600;2022-08-19T01:16:55;16.10;99.90
51837;DHT22;38941;53.254;6.600;2022-08-19T01:18:57;16.00;99.90
51837;DHT22;38941;53.254;6.600;2022-08-19T01:21:02;16.00;99.90
51837;DHT22;38941;53.254;6.600;2022-08-19T01:23:05;16.00;99.90
51837;DHT22;38941;53.254;6.600;2022-08-19T01:25:06;15.90;99.90
51837;DHT22;38941;53.254;6.600;2022-08-19T01:27:07;15.90;99.90
51837;DHT22;38941;53.254;6.600;2022-08-19T01:29:10;15.90;99.90
51837;DHT22;38941;53.254;6.600;2022-08-19T01:31:16;16.00;99.90
51837;DHT22;38941;53.254;6.600;2022-08-19T01:33:17;15.90;99.90
51837;DHT22;38941;53.254;6.600;2022-08-19T01:35:21;16.00;99.90
51837;DHT22;38941;53.254;6.600;2022-08-19T01:37:24;16.00;99.90
51837;DHT22;38941;53.254;6.600;2022-08-19T01:39:25;16.00;99.90
51837;DHT22;38941;53.254;6.600;2022-08-19T01:41:26;16.00;99.90
51837;DHT22;38941;53.254;6.600;2022-08-19T01:43:27;16.00;99.90
51837;DHT22;38941;53.254;6.600;2022-08-19T01:45:30;16.00;99.90
51837;DHT22;38941;53.254;6.600;2022-08-19T01:47:31;16.00;99.90
51837;DHT22;38941;53.254;6.600;2022-08-19T01:49:32;16.00;99.90
51837;DHT22;38941;53.254;6.600;2022-08-19T01:51:33;16.00;99.90
51837;DHT22;38941;53.254;6.600;2022-08-19T01:53:35;16.00;99.90
51837;DHT22;38941;53.254;6.600;2022-08-19T01:55:38;15.90;99.90
51837;DHT22;38941;53.254;6.600;2022-08-19T01:57:41;15.90;99.90
51837;DHT22;38941;53.254;6.600;2022-08-19T01:59:44;15.90;99.90
51837;DHT22;38941;53.254;6.600;2022-08-19T02:01:45;15.90;99.90
51837;DHT22;38941;53.254;6.600;2022-08-19T02:03:46;15.80;99.90
51837;DHT22;38941;53.254;6.600;2022-08-19T02:05:47;15.80;99.90
51837;DHT22;38941;53.254;6.600;2022-08-19T02:07:50;15.80;99.90
51837;DHT22;38941;53.254;6.600;2022-08-19T02:09:51;15.80;99.90
51837;DHT22;38941;53.254;6.600;2022-08-19T02:11:52;15.80;99.90
51837;DHT22;38941;53.254;6.600;2022-08-19T02:13:55;15.80;99.90
51837;DHT22;38941;53.254;6.600;2022-08-19T02:15:56;15.80;99.90
51837;DHT22;38941;53.254;6.600;2022-08-19T02:17:56;15.80;99.90
51837;DHT22;38941;53.254;6.600;2022-08-19T02:19:57;15.80;99.90
51837;DHT22;38941;53.254;6.600;2022-08-19T02:22:03;15.80;99.90
51837;DHT22;38941;53.254;6.600;2022-08-19T02:24:04;15.90;99.90
51837;DHT22;38941;53.254;6.600;2022-08-19T02:26:05;15.80;99.90
51837;DHT22;38941;53.254;6.600;2022-08-19T02:28:07;15.90;99.90
51837;DHT22;38941;53.254;6.600;2022-08-19T02:30:11;15.90;99.90
51837;DHT22;38941;53.254;6.600;2022-08-19T02:32:13;15.80;99.90
51837;DHT22;38941;53.254;6.600;2022-08-19T02:34:14;15.80;99.90
51837;DHT22;38941;53.254;6.600;2022-08-19T02:36:17;15.80;99.90
51837;DHT22;38941;53.254;6.600;2022-08-19T02:38:18;15.80;99.90
51837;DHT22;38941;53.254;6.600;2022-08-19T02:40:29;15.80;99.90
51837;DHT22;38941;53.254;6.600;2022-08-19T02:42:34;15.80;99.90
51837;DHT22;38941;53.254;6.600;2022-08-19T02:44:35;15.70;99.90
51837;DHT22;38941;53.254;6.600;2022-08-19T02:46:37;15.70;99.90
51837;DHT22;38941;53.254;6.600;2022-08-19T02:48:38;15.70;99.90
51837;DHT22;38941;53.254;6.600;2022-08-19T02:50:39;15.70;99.90
51837;DHT22;38941;53.254;6.600;2022-08-19T02:52:40;15.40;99.90
51837;DHT22;38941;53.254;6.600;2022-08-19T02:54:41;15.70;99.90
51837;DHT22;38941;53.254;6.600;2022-08-19T02:56:44;15.70;99.90
51837;DHT22;38941;53.254;6.600;2022-08-19T02:58:45;15.60;99.90
51837;DHT22;38941;53.254;6.600;2022-08-19T03:00:50;15.60;99.90
51837;DHT22;38941;53.254;6.600;2022-08-19T03:02:51;15.60;99.90
51837;DHT22;38941;53.254;6.600;2022-08-19T03:04:51;15.60;99.90
51837;DHT22;38941;53.254;6.600;2022-08-19T03:06:52;15.60;99.90
51837;DHT22;38941;53.254;6.600;2022-08-19T03:08:53;15.60;99.90
51837;DHT22;38941;53.254;6.600;2022-08-19T03:10:54;15.60;99.90
51837;DHT22;38941;53.254;6.600;2022-08-19T03:12:55;15.60;99.90
51837;DHT22;38941;53.254;6.600;2022-08-19T03:14:57;15.60;99.90
51837;DHT22;38941;53.254;6.600;2022-08-19T03:16:59;15.60;99.90
51837;DHT22;38941;53.254;6.600;2022-08-19T03:19:01;15.60;99.90
51837;DHT22;38941;53.254;6.600;2022-08-19T03:21:03;15.60;99.90
51837;DHT22;38941;53.254;6.600;2022-08-19T03:23:04;15.60;99.90
51837;DHT22;38941;53.254;6.600;2022-08-19T03:25:05;15.60;99.90
51837;DHT22;38941;53.254;6.600;2022-08-19T03:27:05;15.50;99.90
51837;DHT22;38941;53.254;6.600;2022-08-19T03:29:07;15.60;99.90
51837;DHT22;38941;53.254;6.600;2022-08-19T03:31:13;15.60;99.90
51837;DHT22;38941;53.254;6.600;2022-08-19T03:33:14;15.60;99.90
51837;DHT22;38941;53.254;6.600;2022-08-19T03:35:15;15.60;99.90
51837;DHT22;38941;53.254;6.600;2022-08-19T03:37:15;15.60;99.90
51837;DHT22;38941;53.254;6.600;2022-08-19T03:39:18;15.60;99.90
51837;DHT22;38941;53.254;6.600;2022-08-19T03:41:20;15.60;99.90
51837;DHT22;38941;53.254;6.600;2022-08-19T03:43:22;15.60;99.90
51837;DHT22;38941;53.254;6.600;2022-08-19T03:45:23;15.50;99.90
51837;DHT22;38941;53.254;6.600;2022-08-19T03:47:24;15.50;99.90
51837;DHT22;38941;53.254;6.600;2022-08-19T03:49:28;15.50;99.90
51837;DHT22;38941;53.254;6.600;2022-08-19T03:51:34;15.50;99.90
51837;DHT22;38941;53.254;6.600;2022-08-19T03:53:36;15.50;99.90
51837;DHT22;38941;53.254;6.600;2022-08-19T03:55:41;15.50;99.90
51837;DHT22;38941;53.254;6.600;2022-08-19T03:57:43;15.40;99.90
51837;DHT22;38941;53.254;6.600;2022-08-19T03:59:45;15.40;99.90
51837;DHT22;38941;53.254;6.600;2022-08-19T04:01:46;15.40;99.90
51837;DHT22;38941;53.254;6.600;2022-08-19T04:03:48;15.40;99.90
51837;DHT22;38941;53.254;6.600;2022-08-19T04:05:49;15.40;99.90
51837;DHT22;38941;53.254;6.600;2022-08-19T04:07:50;15.40;99.90
51837;DHT22;38941;53.254;6.600;2022-08-19T04:09:52;15.40;99.90
51837;DHT22;38941;53.254;6.600;2022-08-19T04:11:56;15.30;99.90
51837;DHT22;38941;53.254;6.600;2022-08-19T04:13:57;15.30;99.90
51837;DHT22;38941;53.254;6.600;2022-08-19T04:15:57;15.30;99.90
51837;DHT22;38941;53.254;6.600;2022-08-19T04:17:58;15.30;99.90
51837;DHT22;38941;53.254;6.600;2022-08-19T04:19:59;15.30;99.90
51837;DHT22;38941;53.254;6.600;2022-08-19T04:22:00;15.30;99.90
51837;DHT22;38941;53.254;6.600;2022-08-19T04:24:02;15.20;99.90
51837;DHT22;38941;53.254;6.600;2022-08-19T04:26:03;15.30;99.90
51837;DHT22;38941;53.254;6.600;2022-08-19T04:28:04;15.20;99.90
51837;DHT22;38941;53.254;6.600;2022-08-19T04:30:05;15.30;99.90
51837;DHT22;38941;53.254;6.600;2022-08-19T04:32:06;15.30;99.90
51837;DHT22;38941;53.254;6.600;2022-08-19T04:34:09;15.30;99.90
51837;DHT22;38941;53.254;6.600;2022-08-19T04:36:18;15.30;99.90
51837;DHT22;38941;53.254;6.600;2022-08-19T04:38:21;15.30;99.90
51837;DHT22;38941;53.254;6.600;2022-08-19T04:40:24;15.30;99.90
51837;DHT22;38941;53.254;6.600;2022-08-19T04:42:44;15.30;99.90
51837;DHT22;38941;53.254;6.600;2022-08-19T04:44:45;15.30;99.90
51837;DHT22;38941;53.254;6.600;2022-08-19T04:46:47;15.30;99.90
51837;DHT22;38941;53.254;6.600;2022-08-19T04:48:48;15.30;99.90
51837;DHT22;38941;53.254;6.600;2022-08-19T04:50:49;15.40;99.90
51837;DHT22;38941;53.254;6.600;2022-08-19T04:52:51;15.40;99.90
51837;DHT22;38941;53.254;6.600;2022-08-19T04:54:52;15.40;99.90
51837;DHT22;38941;53.254;6.600;2022-08-19T04:56:56;15.40;99.90
51837;DHT22;38941;53.254;6.600;2022-08-19T04:58:57;15.40;99.90
51837;DHT22;38941;53.254;6.600;2022-08-19T05:00:58;15.40;99.90
51837;DHT22;38941;53.254;6.600;2022-08-19T05:03:01;15.40;99.90
51837;DHT22;38941;53.254;6.600;2022-08-19T05:05:03;15.40;99.90
51837;DHT22;38941;53.254;6.600;2022-08-19T05:07:03;15.40;99.90
51837;DHT22;38941;53.254;6.600;2022-08-19T05:09:05;15.40;99.90
51837;DHT22;38941;53.254;6.600;2022-08-19T05:11:15;15.40;99.90
51837;DHT22;38941;53.254;6.600;2022-08-19T05:13:17;15.50;99.90
51837;DHT22;38941;53.254;6.600;2022-08-19T05:15:18;15.50;99.90
51837;DHT22;38941;53.254;6.600;2022-08-19T05:17:19;15.50;99.90
51837;DHT22;38941;53.254;6.600;2022-08-19T05:19:21;15.50;99.90
51837;DHT22;38941;53.254;6.600;2022-08-19T05:21:41;15.60;99.90
51837;DHT22;38941;53.254;6.600;2022-08-19T05:24:01;15.60;99.90
51837;DHT22;38941;53.254;6.600;2022-08-19T05:26:03;15.70;99.90
51837;DHT22;38941;53.254;6.600;2022-08-19T05:28:04;15.70;99.90
51837;DHT22;38941;53.254;6.600;2022-08-19T05:30:05;15.80;99.90
51837;DHT22;38941;53.254;6.600;2022-08-19T05:32:07;15.80;99.90
51837;DHT22;38941;53.254;6.600;2022-08-19T05:34:11;15.90;99.90
51837;DHT22;38941;53.254;6.600;2022-08-19T05:36:12;15.90;99.90
51837;DHT22;38941;53.254;6.600;2022-08-19T05:38:13;16.00;99.90
51837;DHT22;38941;53.254;6.600;2022-08-19T05:40:14;16.00;99.90
51837;DHT22;38941;53.254;6.600;2022-08-19T05:42:15;16.10;99.90
51837;DHT22;38941;53.254;6.600;2022-08-19T05:44:17;16.20;99.90
51837;DHT22;38941;53.254;6.600;2022-08-19T05:46:19;16.20;99.90
51837;DHT22;38941;53.254;6.600;2022-08-19T05:48:20;16.30;99.90
51837;DHT22;38941;53.254;6.600;2022-08-19T05:50:21;16.30;99.90
51837;DHT22;38941;53.254;6.600;2022-08-19T05:52:22;16.40;99.90
51837;DHT22;38941;53.254;6.600;2022-08-19T05:54:24;16.50;99.90
51837;DHT22;38941;53.254;6.600;2022-08-19T05:56:24;16.30;99.90
51837;DHT22;38941;53.254;6.600;2022-08-19T05:58:25;16.70;99.90
51837;DHT22;38941;53.254;6.600;2022-08-19T06:00:26;16.70;99.90
51837;DHT22;38941;53.254;6.600;2022-08-19T06:02:28;16.80;99.90
51837;DHT22;38941;53.254;6.600;2022-08-19T06:04:30;16.90;99.90
51837;DHT22;38941;53.254;6.600;2022-08-19T06:06:31;16.90;99.90
51837;DHT22;38941;53.254;6.600;2022-08-19T06:08:35;17.00;99.90
51837;DHT22;38941;53.254;6.600;2022-08-19T06:10:37;17.10;99.90
51837;DHT22;38941;53.254;6.600;2022-08-19T06:12:38;17.20;99.90
51837;DHT22;38941;53.254;6.600;2022-08-19T06:14:39;17.30;99.90
51837;DHT22;38941;53.254;6.600;2022-08-19T06:16:44;17.40;99.90
51837;DHT22;38941;53.254;6.600;2022-08-19T06:18:47;17.50;99.90
51837;DHT22;38941;53.254;6.600;2022-08-19T06:20:48;17.60;99.90
51837;DHT22;38941;53.254;6.600;2022-08-19T06:22:49;17.70;99.90
51837;DHT22;38941;53.254;6.600;2022-08-19T06:24:51;17.70;99.90
51837;DHT22;38941;53.254;6.600;2022-08-19T06:26:56;17.80;99.90
51837;DHT22;38941;53.254;6.600;2022-08-19T06:28:58;17.90;99.90
51837;DHT22;38941;53.254;6.600;2022-08-19T06:31:06;18.00;99.90
51837;DHT22;38941;53.254;6.600;2022-08-19T06:33:06;18.10;99.90
51837;DHT22;38941;53.254;6.600;2022-08-19T06:35:07;18.20;99.90
51837;DHT22;38941;53.254;6.600;2022-08-19T06:37:08;18.30;99.90
51837;DHT22;38941;53.254;6.600;2022-08-19T06:39:12;18.30;99.90
51837;DHT22;38941;53.254;6.600;2022-08-19T06:41:13;18.40;99.90
51837;DHT22;38941;53.254;6.600;2022-08-19T06:43:13;18.50;99.90
51837;DHT22;38941;53.254;6.600;2022-08-19T06:45:16;18.50;99.90
51837;DHT22;38941;53.254;6.600;2022-08-19T06:47:20;18.60;99.90
51837;DHT22;38941;53.254;6.600;2022-08-19T06:49:24;18.70;99.90
51837;DHT22;38941;53.254;6.600;2022-08-19T06:51:31;18.80;99.90
51837;DHT22;38941;53.254;6.600;2022-08-19T06:53:34;18.80;99.90
51837;DHT22;38941;53.254;6.600;2022-08-19T06:55:35;18.90;99.90
51837;DHT22;38941;53.254;6.600;2022-08-19T06:57:37;19.00;99.90
51837;DHT22;38941;53.254;6.600;2022-08-19T06:59:37;19.10;99.90
51837;DHT22;38941;53.254;6.600;2022-08-19T07:01:41;19.10;99.90
51837;DHT22;38941;53.254;6.600;2022-08-19T07:03:41;19.20;99.90
51837;DHT22;38941;53.254;6.600;2022-08-19T07:05:42;19.30;99.90
51837;DHT22;38941;53.254;6.600;2022-08-19T07:07:43;19.40;99.90
51837;DHT22;38941;53.254;6.600;2022-08-19T07:09:44;19.50;99.90
51837;DHT22;38941;53.254;6.600;2022-08-19T07:11:51;19.60;99.90
51837;DHT22;38941;53.254;6.600;2022-08-19T07:13:53;19.70;99.90
51837;DHT22;38941;53.254;6.600;2022-08-19T07:15:55;19.60;99.90
51837;DHT22;38941;53.254;6.600;2022-08-19T07:17:56;19.90;99.90
51837;DHT22;38941;53.254;6.600;2022-08-19T07:19:58;20.00;99.90
51837;DHT22;38941;53.254;6.600;2022-08-19T07:22:04;20.00;99.90
51837;DHT22;38941;53.254;6.600;2022-08-19T07:24:05;20.10;99.90
51837;DHT22;38941;53.254;6.600;2022-08-19T07:28:17;20.20;99.90
51837;DHT22;38941;53.254;6.600;2022-08-19T07:30:18;20.20;99.90
51837;DHT22;38941;53.254;6.600;2022-08-19T07:32:19;20.30;99.90
51837;DHT22;38941;53.254;6.600;2022-08-19T07:34:20;20.30;99.90
51837;DHT22;38941;53.254;6.600;2022-08-19T07:36:26;20.40;99.90
51837;DHT22;38941;53.254;6.600;2022-08-19T07:38:35;20.60;99.90
51837;DHT22;38941;53.254;6.600;2022-08-19T07:40:37;20.70;99.90
51837;DHT22;38941;53.254;6.600;2022-08-19T07:42:38;20.80;99.90
51837;DHT22;38941;53.254;6.600;2022-08-19T07:44:39;21.10;99.90
51837;DHT22;38941;53.254;6.600;2022-08-19T07:46:43;20.90;99.90
51837;DHT22;38941;53.254;6.600;2022-08-19T07:48:49;21.10;99.90
51837;DHT22;38941;53.254;6.600;2022-08-19T07:50:54;21.30;99.90
51837;DHT22;38941;53.254;6.600;2022-08-19T07:52:55;21.50;99.90
51837;DHT22;38941;53.254;6.600;2022-08-19T07:54:58;21.60;99.90
51837;DHT22;38941;53.254;6.600;2022-08-19T07:57:00;21.70;99.90
51837;DHT22;38941;53.254;6.600;2022-08-19T07:59:04;21.80;99.90
51837;DHT22;38941;53.254;6.600;2022-08-19T08:01:06;21.80;99.90
51837;DHT22;38941;53.254;6.600;2022-08-19T08:03:11;21.90;99.90
51837;DHT22;38941;53.254;6.600;2022-08-19T08:05:12;22.00;99.90
51837;DHT22;38941;53.254;6.600;2022-08-19T08:07:31;22.20;99.90
51837;DHT22;38941;53.254;6.600;2022-08-19T08:09:51;22.40;99.90
51837;DHT22;38941;53.254;6.600;2022-08-19T08:11:59;22.60;99.90
51837;DHT22;38941;53.254;6.600;2022-08-19T08:14:01;22.70;99.90
51837;DHT22;38941;53.254;6.600;2022-08-19T08:16:03;22.80;99.90
51837;DHT22;38941;53.254;6.600;2022-08-19T08:18:03;22.90;99.90
51837;DHT22;38941;53.254;6.600;2022-08-19T08:20:05;22.90;99.50
51837;DHT22;38941;53.254;6.600;2022-08-19T08:22:10;23.00;99.40
51837;DHT22;38941;53.254;6.600;2022-08-19T08:24:34;23.30;99.30
51837;DHT22;38941;53.254;6.600;2022-08-19T08:26:36;23.60;99.10
51837;DHT22;38941;53.254;6.600;2022-08-19T08:28:37;23.80;98.70
51837;DHT22;38941;53.254;6.600;2022-08-19T08:30:38;23.90;98.10
51837;DHT22;38941;53.254;6.600;2022-08-19T08:32:42;24.00;97.60
51837;DHT22;38941;53.254;6.600;2022-08-19T08:34:43;24.20;96.90
51837;DHT22;38941;53.254;6.600;2022-08-19T08:36:45;24.10;96.70
51837;DHT22;38941;53.254;6.600;2022-08-19T08:38:46;24.30;96.70
51837;DHT22;38941;53.254;6.600;2022-08-19T08:40:50;24.50;96.10
51837;DHT22;38941;53.254;6.600;2022-08-19T08:45:14;24.80;94.70
51837;DHT22;38941;53.254;6.600;2022-08-19T08:47:18;24.90;94.50
51837;DHT22;38941;53.254;6.600;2022-08-19T08:51:40;24.80;93.40
51837;DHT22;38941;53.254;6.600;2022-08-19T08:53:44;24.80;93.70
51837;DHT22;38941;53.254;6.600;2022-08-19T08:55:46;25.00;93.90
51837;DHT22;38941;53.254;6.600;2022-08-19T08:59:51;25.10;93.70
51837;DHT22;38941;53.254;6.600;2022-08-19T09:01:54;25.40;93.90
51837;DHT22;38941;53.254;6.600;2022-08-19T09:03:55;25.60;93.80
51837;DHT22;38941;53.254;6.600;2022-08-19T09:06:02;25.90;93.50
51837;DHT22;38941;53.254;6.600;2022-08-19T09:10:56;26.40;92.70
51837;DHT22;38941;53.254;6.600;2022-08-19T09:15:14;26.60;91.90
51837;DHT22;38941;53.254;6.600;2022-08-19T09:17:18;26.90;92.10
51837;DHT22;38941;53.254;6.600;2022-08-19T09:19:19;27.10;91.80
51837;DHT22;38941;53.254;6.600;2022-08-19T09:21:21;27.30;91.20
51837;DHT22;38941;53.254;6.600;2022-08-19T09:23:25;26.90;90.30
51837;DHT22;38941;53.254;6.600;2022-08-19T09:25:26;27.30;90.00
51837;DHT22;38941;53.254;6.600;2022-08-19T09:27:29;27.30;90.00
51837;DHT22;38941;53.254;6.600;2022-08-19T09:29:30;27.30;88.20
51837;DHT22;38941;53.254;6.600;2022-08-19T09:31:32;27.40;87.80
51837;DHT22;38941;53.254;6.600;2022-08-19T09:33:33;27.30;87.40
51837;DHT22;38941;53.254;6.600;2022-08-19T09:35:34;27.50;87.40
51837;DHT22;38941;53.254;6.600;2022-08-19T09:37:36;27.80;87.10
51837;DHT22;38941;53.254;6.600;2022-08-19T09:39:38;27.80;85.60
51837;DHT22;38941;53.254;6.600;2022-08-19T09:41:39;27.90;85.20
51837;DHT22;38941;53.254;6.600;2022-08-19T09:43:41;27.90;84.10
51837;DHT22;38941;53.254;6.600;2022-08-19T09:45:42;28.10;83.50
51837;DHT22;38941;53.254;6.600;2022-08-19T09:47:44;28.30;82.90
51837;DHT22;38941;53.254;6.600;2022-08-19T09:49:46;28.80;82.90
51837;DHT22;38941;53.254;6.600;2022-08-19T09:51:51;29.00;81.70
51837;DHT22;38941;53.254;6.600;2022-08-19T09:53:52;29.20;81.60
51837;DHT22;38941;53.254;6.600;2022-08-19T09:55:57;29.60;81.30
51837;DHT22;38941;53.254;6.600;2022-08-19T09:58:01;29.90;79.60
51837;DHT22;38941;53.254;6.600;2022-08-19T10:00:07;30.00;78.50
51837;DHT22;38941;53.254;6.600;2022-08-19T10:02:09;30.00;76.40
51837;DHT22;38941;53.254;6.600;2022-08-19T10:04:11;29.90;77.10
51837;DHT22;38941;53.254;6.600;2022-08-19T10:06:12;29.90;77.00
51837;DHT22;38941;53.254;6.600;2022-08-19T10:08:12;29.90;77.30
51837;DHT22;38941;53.254;6.600;2022-08-19T10:10:14;29.90;75.30
51837;DHT22;38941;53.254;6.600;2022-08-19T10:12:16;30.10;75.60
51837;DHT22;38941;53.254;6.600;2022-08-19T10:14:18;30.50;74.50
51837;DHT22;38941;53.254;6.600;2022-08-19T10:16:23;30.90;74.60
51837;DHT22;38941;53.254;6.600;2022-08-19T10:18:25;31.10;73.60
51837;DHT22;38941;53.254;6.600;2022-08-19T10:20:27;31.00;72.30
51837;DHT22;38941;53.254;6.600;2022-08-19T10:22:30;30.80;71.20
51837;DHT22;38941;53.254;6.600;2022-08-19T10:24:31;30.80;72.10
51837;DHT22;38941;53.254;6.600;2022-08-19T10:26:39;31.20;72.80
51837;DHT22;38941;53.254;6.600;2022-08-19T10:28:43;31.60;71.10
51837;DHT22;38941;53.254;6.600;2022-08-19T10:30:43;31.90;71.20
51837;DHT22;38941;53.254;6.600;2022-08-19T10:32:45;32.20;70.60
51837;DHT22;38941;53.254;6.600;2022-08-19T10:34:47;32.00;68.30
51837;DHT22;38941;53.254;6.600;2022-08-19T10:36:49;31.90;68.00
51837;DHT22;38941;53.254;6.600;2022-08-19T10:38:53;31.50;67.20
51837;DHT22;38941;53.254;6.600;2022-08-19T10:40:56;31.50;67.90
51837;DHT22;38941;53.254;6.600;2022-08-19T10:42:57;31.60;67.60
51837;DHT22;38941;53.254;6.600;2022-08-19T10:44:58;31.80;67.50
51837;DHT22;38941;53.254;6.600;2022-08-19T10:46:59;32.00;66.80
51837;DHT22;38941;53.254;6.600;2022-08-19T10:49:01;32.20;66.40
51837;DHT22;38941;53.254;6.600;2022-08-19T10:51:03;32.00;66.40
51837;DHT22;38941;53.254;6.600;2022-08-19T10:53:23;32.10;66.60
51837;DHT22;38941;53.254;6.600;2022-08-19T10:55:26;32.00;66.80
51837;DHT22;38941;53.254;6.600;2022-08-19T10:57:46;31.70;65.50
51837;DHT22;38941;53.254;6.600;2022-08-19T10:59:48;31.60;65.70
51837;DHT22;38941;53.254;6.600;2022-08-19T11:01:50;31.70;67.00
51837;DHT22;38941;53.254;6.600;2022-08-19T11:03:51;31.90;66.30
51837;DHT22;38941;53.254;6.600;2022-08-19T11:06:06;32.20;65.10
51837;DHT22;38941;53.254;6.600;2022-08-19T11:08:08;32.50;63.90
51837;DHT22;38941;53.254;6.600;2022-08-19T11:10:14;32.40;65.10
51837;DHT22;38941;53.254;6.600;2022-08-19T11:12:15;32.30;65.10
51837;DHT22;38941;53.254;6.600;2022-08-19T11:14:18;32.30;65.70
51837;DHT22;38941;53.254;6.600;2022-08-19T11:16:26;32.10;65.20
51837;DHT22;38941;53.254;6.600;2022-08-19T11:18:30;31.90;64.20
51837;DHT22;38941;53.254;6.600;2022-08-19T11:20:31;31.70;65.20
51837;DHT22;38941;53.254;6.600;2022-08-19T11:22:32;31.50;65.30
51837;DHT22;38941;53.254;6.600;2022-08-19T11:24:34;31.20;65.60
51837;DHT22;38941;53.254;6.600;2022-08-19T11:26:38;31.00;65.20
51837;DHT22;38941;53.254;6.600;2022-08-19T11:28:39;31.00;65.80
51837;DHT22;38941;53.254;6.600;2022-08-19T11:30:40;31.00;65.70
51837;DHT22;38941;53.254;6.600;2022-08-19T11:32:41;31.00;65.40
51837;DHT22;38941;53.254;6.600;2022-08-19T11:34:43;30.90;66.20
51837;DHT22;38941;53.254;6.600;2022-08-19T11:36:45;30.90;65.50
51837;DHT22;38941;53.254;6.600;2022-08-19T11:38:49;31.00;65.20
51837;DHT22;38941;53.254;6.600;2022-08-19T11:40:58;30.80;65.70
51837;DHT22;38941;53.254;6.600;2022-08-19T11:42:58;30.60;64.10
51837;DHT22;38941;53.254;6.600;2022-08-19T11:44:59;30.50;65.50
51837;DHT22;38941;53.254;6.600;2022-08-19T11:47:01;30.40;66.00
51837;DHT22;38941;53.254;6.600;2022-08-19T11:49:05;30.40;65.40
51837;DHT22;38941;53.254;6.600;2022-08-19T11:51:14;30.40;64.30
51837;DHT22;38941;53.254;6.600;2022-08-19T11:53:17;30.30;64.20
51837;DHT22;38941;53.254;6.600;2022-08-19T11:55:20;30.10;64.90
51837;DHT22;38941;53.254;6.600;2022-08-19T11:57:21;30.00;65.40
51837;DHT22;38941;53.254;6.600;2022-08-19T11:59:22;29.90;65.30
51837;DHT22;38941;53.254;6.600;2022-08-19T12:01:24;29.90;65.80
51837;DHT22;38941;53.254;6.600;2022-08-19T12:03:26;29.80;66.60
51837;DHT22;38941;53.254;6.600;2022-08-19T12:05:26;29.70;66.70
51837;DHT22;38941;53.254;6.600;2022-08-19T12:07:27;29.50;66.70
51837;DHT22;38941;53.254;6.600;2022-08-19T12:09:28;29.40;67.00
51837;DHT22;38941;53.254;6.600;2022-08-19T12:11:29;29.30;67.90
51837;DHT22;38941;53.254;6.600;2022-08-19T12:13:30;29.30;68.60
51837;DHT22;38941;53.254;6.600;2022-08-19T12:15:35;29.30;68.40
51837;DHT22;38941;53.254;6.600;2022-08-19T12:17:37;29.30;68.50
51837;DHT22;38941;53.254;6.600;2022-08-19T12:19:38;29.20;68.10
51837;DHT22;38941;53.254;6.600;2022-08-19T12:21:40;29.10;67.70
51837;DHT22;38941;53.254;6.600;2022-08-19T12:23:42;29.00;67.90
51837;DHT22;38941;53.254;6.600;2022-08-19T12:25:45;28.70;66.20
51837;DHT22;38941;53.254;6.600;2022-08-19T12:27:52;28.70;65.60
51837;DHT22;38941;53.254;6.600;2022-08-19T12:29:53;28.60;65.30
51837;DHT22;38941;53.254;6.600;2022-08-19T12:31:54;28.50;65.20
51837;DHT22;38941;53.254;6.600;2022-08-19T12:34:00;28.60;65.40
51837;DHT22;38941;53.254;6.600;2022-08-19T12:36:04;28.80;65.60
51837;DHT22;38941;53.254;6.600;2022-08-19T12:38:06;28.80;65.10
51837;DHT22;38941;53.254;6.600;2022-08-19T12:40:07;28.80;65.70
51837;DHT22;38941;53.254;6.600;2022-08-19T12:42:10;28.80;66.20
51837;DHT22;38941;53.254;6.600;2022-08-19T12:44:11;29.00;66.70
51837;DHT22;38941;53.254;6.600;2022-08-19T12:46:12;29.00;66.60
51837;DHT22;38941;53.254;6.600;2022-08-19T12:48:16;29.00;66.50
51837;DHT22;38941;53.254;6.600;2022-08-19T12:50:17;29.10;66.20
51837;DHT22;38941;53.254;6.600;2022-08-19T12:52:18;29.10;66.00
51837;DHT22;38941;53.254;6.600;2022-08-19T12:54:21;29.10;66.20
51837;DHT22;38941;53.254;6.600;2022-08-19T12:56:21;29.20;66.20
51837;DHT22;38941;53.254;6.600;2022-08-19T12:58:23;29.20;66.00
51837;DHT22;38941;53.254;6.600;2022-08-19T13:00:24;29.10;65.80
51837;DHT22;38941;53.254;6.600;2022-08-19T13:02:25;29.00;66.00
51837;DHT22;38941;53.254;6.600;2022-08-19T13:04:26;28.90;66.00
51837;DHT22;38941;53.254;6.600;2022-08-19T13:06:29;28.80;66.30
51837;DHT22;38941;53.254;6.600;2022-08-19T13:08:31;28.80;66.30